createdAt,value
2022-09-16T00:00:44.682Z,13.77
2022-09-16T00:01:44.675Z,13.81
2022-09-16T00:02:44.646Z,13.77
2022-09-16T00:03:44.631Z,13.74
2022-09-16T00:04:44.690Z,13.71
2022-09-16T00:05:44.616Z,13.77
2022-09-16T00:06:44.608Z,13.78
2022-09-16T00:07:44.594Z,13.81
2022-09-16T00:08:44.588Z,13.77
2022-09-16T00:09:44.617Z,13.75
2022-09-16T00:10:44.599Z,13.74
2022-09-16T00:11:44.572Z,13.68
2022-09-16T00:12:44.565Z,13.78
2022-09-16T00:13:44.558Z,13.72
2022-09-16T00:14:44.551Z,13.74
2022-09-16T00:15:44.539Z,13.77
2022-09-16T00:16:44.600Z,13.77
2022-09-16T00:17:44.516Z,13.72
2022-09-16T00:18:44.514Z,13.79
2022-09-16T00:19:44.511Z,13.77
2022-09-16T00:20:44.570Z,13.74
2022-09-16T00:21:44.516Z,13.90
2022-09-16T00:22:44.511Z,13.89
2022-09-16T00:23:44.542Z,13.87
2022-09-16T00:24:44.485Z,13.83
2022-09-16T00:25:44.481Z,13.79
2022-09-16T00:26:44.478Z,13.86
2022-09-16T00:27:44.452Z,13.77
2022-09-16T00:28:44.444Z,13.72
2022-09-16T00:29:44.444Z,13.78
2022-09-16T00:30:44.422Z,13.74
2022-09-16T00:31:44.529Z,13.74
2022-09-16T00:32:44.408Z,13.78
2022-09-16T00:33:44.413Z,13.74
2022-09-16T00:34:44.389Z,13.65
2022-09-16T00:35:44.396Z,13.65
2022-09-16T00:36:44.425Z,13.62
2022-09-16T00:37:44.381Z,13.67
2022-09-16T00:38:44.367Z,13.52
2022-09-16T00:39:44.373Z,13.53
2022-09-16T00:40:44.366Z,13.47
2022-09-16T00:41:44.357Z,13.49
2022-09-16T00:42:44.381Z,13.47
2022-09-16T00:43:44.352Z,13.41
2022-09-16T00:44:44.345Z,13.41
2022-09-16T00:45:44.333Z,13.31
2022-09-16T00:46:44.405Z,13.33
2022-09-16T00:47:44.296Z,13.31
2022-09-16T00:48:44.295Z,13.28
2022-09-16T00:49:44.301Z,13.31
2022-09-16T00:50:44.301Z,13.28
2022-09-16T00:51:44.294Z,13.33
2022-09-16T00:52:44.318Z,13.33
2022-09-16T00:53:44.295Z,13.33
2022-09-16T00:54:44.264Z,13.28
2022-09-16T00:55:44.244Z,13.33
2022-09-16T00:56:44.248Z,13.33
2022-09-16T00:57:44.222Z,13.30
2022-09-16T00:58:44.230Z,13.39
2022-09-16T00:59:44.242Z,13.33
2022-09-16T01:00:44.256Z,13.42
2022-09-16T01:01:44.261Z,13.44
2022-09-16T01:02:44.198Z,13.44
2022-09-16T01:03:44.185Z,13.41
2022-09-16T01:04:44.170Z,13.37
2022-09-16T01:05:44.184Z,13.35
2022-09-16T01:06:44.161Z,13.28
2022-09-16T01:07:44.150Z,13.28
2022-09-16T01:08:44.201Z,13.27
2022-09-16T01:09:44.150Z,13.23
2022-09-16T01:10:44.130Z,13.23
2022-09-16T01:11:44.170Z,13.19
2022-09-16T01:12:44.153Z,13.19
2022-09-16T01:13:44.124Z,13.18
2022-09-16T01:14:44.172Z,13.20
2022-09-16T01:15:44.087Z,13.23
2022-09-16T01:16:44.096Z,13.28
2022-09-16T01:17:44.068Z,13.19
2022-09-16T01:18:44.067Z,13.11
2022-09-16T01:19:44.072Z,13.16
2022-09-16T01:20:44.057Z,13.31
2022-09-16T01:21:44.043Z,13.18
2022-09-16T01:22:44.060Z,13.22
2022-09-16T01:23:44.144Z,13.20
2022-09-16T01:24:44.080Z,13.13
2022-09-16T01:25:44.020Z,13.12
2022-09-16T01:26:43.995Z,13.15
2022-09-16T01:27:43.997Z,13.16
2022-09-16T01:28:43.969Z,13.13
2022-09-16T01:29:43.997Z,13.13
2022-09-16T01:30:43.986Z,13.09
2022-09-16T01:31:44.085Z,13.09
2022-09-16T01:32:44.002Z,13.09
2022-09-16T01:33:44.026Z,13.04
2022-09-16T01:34:43.988Z,12.93
2022-09-16T01:35:43.957Z,12.93
2022-09-16T01:36:43.931Z,12.91
2022-09-16T01:37:43.944Z,12.85
2022-09-16T01:38:43.969Z,12.83
2022-09-16T01:39:44.228Z,12.79
2022-09-16T01:40:44.289Z,12.78
2022-09-16T01:41:44.181Z,12.73
2022-09-16T01:42:43.890Z,12.75
2022-09-16T01:43:44.382Z,12.76
2022-09-16T01:44:44.141Z,12.78
2022-09-16T01:45:44.156Z,12.72
2022-09-16T01:46:44.194Z,12.67
2022-09-16T01:47:44.284Z,12.67
2022-09-16T01:48:44.161Z,12.72
2022-09-16T01:49:43.805Z,12.70
2022-09-16T01:50:44.223Z,12.67
2022-09-16T01:51:43.960Z,12.62
2022-09-16T01:52:44.086Z,12.62
2022-09-16T01:53:44.137Z,12.61
2022-09-16T01:54:44.314Z,12.62
2022-09-16T01:55:44.049Z,12.65
2022-09-16T01:56:44.037Z,12.72
2022-09-16T01:57:44.053Z,12.68
2022-09-16T01:58:44.023Z,12.64
2022-09-16T01:59:44.232Z,12.64
2022-09-16T02:00:44.004Z,12.64
2022-09-16T02:01:44.148Z,12.65
2022-09-16T02:02:44.063Z,12.61
2022-09-16T02:03:44.125Z,12.57
2022-09-16T02:04:43.951Z,12.64
2022-09-16T02:05:43.969Z,12.65
2022-09-16T02:06:43.862Z,12.62
2022-09-16T02:07:43.921Z,12.67
2022-09-16T02:08:43.995Z,12.61
2022-09-16T02:09:43.805Z,12.65
2022-09-16T02:10:43.973Z,12.64
2022-09-16T02:11:43.921Z,12.55
2022-09-16T02:12:44.162Z,12.55
2022-09-16T02:13:43.838Z,12.58
2022-09-16T02:14:43.925Z,12.54
2022-09-16T02:15:43.834Z,12.57
2022-09-16T02:16:43.870Z,12.53
2022-09-16T02:17:44.176Z,12.58
2022-09-16T02:18:43.846Z,12.53
2022-09-16T02:19:44.006Z,12.57
2022-09-16T02:20:43.840Z,12.58
2022-09-16T02:21:46.033Z,12.46
2022-09-16T02:22:43.778Z,12.54
2022-09-16T02:23:43.911Z,12.40
2022-09-16T02:24:43.937Z,12.47
2022-09-16T02:25:43.803Z,12.47
2022-09-16T02:26:43.795Z,12.45
2022-09-16T02:27:43.730Z,12.49
2022-09-16T02:28:43.700Z,12.43
2022-09-16T02:29:43.733Z,12.35
2022-09-16T02:30:43.742Z,12.43
2022-09-16T02:31:43.793Z,12.32
2022-09-16T02:32:43.776Z,12.40
2022-09-16T02:33:43.579Z,12.32
2022-09-16T02:34:43.663Z,12.31
2022-09-16T02:35:43.761Z,12.31
2022-09-16T02:36:43.894Z,12.35
2022-09-16T02:37:43.468Z,12.32
2022-09-16T02:38:43.531Z,12.37
2022-09-16T02:39:43.710Z,12.37
2022-09-16T02:40:43.843Z,12.28
2022-09-16T02:41:43.406Z,12.35
2022-09-16T02:42:43.626Z,12.28
2022-09-16T02:43:43.714Z,12.25
2022-09-16T02:44:43.614Z,12.32
2022-09-16T02:45:43.649Z,12.29
2022-09-16T02:46:43.770Z,12.22
2022-09-16T02:47:43.681Z,12.25
2022-09-16T02:48:43.662Z,12.29
2022-09-16T02:49:43.592Z,12.31
2022-09-16T02:50:43.601Z,12.22
2022-09-16T02:51:43.696Z,12.27
2022-09-16T02:52:43.615Z,12.24
2022-09-16T02:53:43.751Z,12.24
2022-09-16T02:54:43.708Z,12.25
2022-09-16T02:55:43.616Z,12.22
2022-09-16T02:56:43.632Z,12.20
2022-09-16T02:57:43.577Z,12.28
2022-09-16T02:58:43.605Z,12.25
2022-09-16T02:59:43.705Z,12.22
2022-09-16T03:00:43.756Z,12.13
2022-09-16T03:01:43.592Z,12.17
2022-09-16T03:02:43.627Z,12.18
2022-09-16T03:03:43.528Z,12.09
2022-09-16T03:04:43.625Z,12.17
2022-09-16T03:05:43.278Z,12.18
2022-09-16T03:06:43.431Z,12.18
2022-09-16T03:07:43.488Z,12.02
2022-09-16T03:08:43.484Z,12.09
2022-09-16T03:09:43.586Z,12.02
2022-09-16T03:10:43.156Z,12.04
2022-09-16T03:11:43.464Z,12.06
2022-09-16T03:12:43.755Z,12.07
2022-09-16T03:13:43.482Z,11.95
2022-09-16T03:14:43.420Z,11.91
2022-09-16T03:15:43.354Z,12.00
2022-09-16T03:16:46.053Z,12.00
2022-09-16T03:17:43.577Z,11.99
2022-09-16T03:18:43.377Z,11.95
2022-09-16T03:19:43.106Z,11.97
2022-09-16T03:20:43.153Z,11.94
2022-09-16T03:21:43.321Z,11.94
2022-09-16T03:22:43.494Z,12.00
2022-09-16T03:23:43.450Z,12.02
2022-09-16T03:24:43.580Z,11.94
2022-09-16T03:25:43.249Z,11.87
2022-09-16T03:26:43.316Z,11.91
2022-09-16T03:27:43.491Z,11.80
2022-09-16T03:28:43.342Z,11.84
2022-09-16T03:29:45.794Z,11.87
2022-09-16T03:30:43.416Z,11.88
2022-09-16T03:31:43.417Z,11.86
2022-09-16T03:32:43.290Z,11.84
2022-09-16T03:33:43.462Z,11.86
2022-09-16T03:34:42.957Z,11.81
2022-09-16T03:35:43.383Z,11.90
2022-09-16T03:36:43.375Z,11.84
2022-09-16T03:37:43.336Z,11.80
2022-09-16T03:38:43.588Z,11.87
2022-09-16T03:39:43.290Z,11.75
2022-09-16T03:40:43.211Z,11.77
2022-09-16T03:41:43.281Z,11.72
2022-09-16T03:42:43.297Z,11.69
2022-09-16T03:43:43.394Z,11.55
2022-09-16T03:44:43.146Z,11.65
2022-09-16T03:45:43.277Z,11.65
2022-09-16T03:46:43.253Z,11.55
2022-09-16T03:47:43.112Z,11.52
2022-09-16T03:48:43.262Z,11.52
2022-09-16T03:49:42.840Z,11.52
2022-09-16T03:50:43.135Z,11.52
2022-09-16T03:51:43.127Z,11.48
2022-09-16T03:52:43.215Z,11.51
2022-09-16T03:53:43.327Z,11.47
2022-09-16T03:54:43.061Z,11.43
2022-09-16T03:55:43.220Z,11.45
2022-09-16T03:56:43.169Z,11.47
2022-09-16T03:57:43.178Z,11.50
2022-09-16T03:58:42.780Z,11.44
2022-09-16T03:59:43.120Z,11.41
2022-09-16T04:00:43.015Z,11.35
2022-09-16T04:01:43.014Z,11.40
2022-09-16T04:02:42.840Z,11.32
2022-09-16T04:03:43.125Z,11.37
2022-09-16T04:04:43.008Z,11.33
2022-09-16T04:05:42.864Z,11.37
2022-09-16T04:06:42.717Z,11.44
2022-09-16T04:07:42.710Z,11.41
2022-09-16T04:08:43.193Z,11.29
2022-09-16T04:09:43.195Z,11.32
2022-09-16T04:10:42.929Z,11.35
2022-09-16T04:11:42.954Z,11.36
2022-09-16T04:12:43.162Z,11.37
2022-09-16T04:13:42.932Z,11.40
2022-09-16T04:15:43.072Z,11.41
2022-09-16T04:16:45.221Z,11.40
2022-09-16T04:17:43.132Z,11.43
2022-09-16T04:18:42.919Z,11.48
2022-09-16T04:19:42.926Z,11.45
2022-09-16T04:20:42.826Z,11.48
2022-09-16T04:21:42.561Z,11.47
2022-09-16T04:22:42.854Z,11.50
2022-09-16T04:23:43.062Z,11.55
2022-09-16T04:24:42.852Z,11.59
2022-09-16T04:25:42.905Z,11.50
2022-09-16T04:26:43.055Z,11.50
2022-09-16T04:27:43.009Z,11.57
2022-09-16T04:28:42.886Z,11.51
2022-09-16T04:29:42.835Z,11.52
2022-09-16T04:30:42.908Z,11.55
2022-09-16T04:31:42.553Z,11.55
2022-09-16T04:32:43.288Z,11.51
2022-09-16T04:33:42.948Z,11.48
2022-09-16T04:34:42.501Z,11.51
2022-09-16T04:35:42.621Z,11.50
2022-09-16T04:36:42.479Z,11.44
2022-09-16T04:37:42.423Z,11.50
2022-09-16T04:38:42.459Z,11.47
2022-09-16T04:39:42.419Z,11.47
2022-09-16T04:40:42.577Z,11.52
2022-09-16T04:41:42.399Z,11.50
2022-09-16T04:42:42.416Z,11.50
2022-09-16T04:43:42.406Z,11.52
2022-09-16T04:44:42.379Z,11.59
2022-09-16T04:45:42.510Z,11.57
2022-09-16T04:46:42.453Z,11.60
2022-09-16T04:47:42.358Z,11.72
2022-09-16T04:48:42.344Z,11.65
2022-09-16T04:49:42.332Z,11.62
2022-09-16T04:50:42.448Z,11.69
2022-09-16T04:51:42.296Z,11.75
2022-09-16T04:52:42.318Z,11.65
2022-09-16T04:53:42.320Z,11.70
2022-09-16T04:54:42.309Z,11.66
2022-09-16T04:55:42.415Z,11.69
2022-09-16T04:56:42.271Z,11.81
2022-09-16T04:57:42.269Z,11.75
2022-09-16T04:58:42.276Z,11.83
2022-09-16T04:59:42.262Z,11.84
2022-09-16T05:00:42.381Z,11.84
2022-09-16T05:01:42.337Z,11.86
2022-09-16T05:02:42.218Z,11.86
2022-09-16T05:03:42.337Z,11.94
2022-09-16T05:04:42.200Z,11.86
2022-09-16T05:05:42.275Z,12.00
2022-09-16T05:06:42.179Z,11.90
2022-09-16T05:07:42.154Z,11.97
2022-09-16T05:08:42.199Z,11.91
2022-09-16T05:09:42.154Z,11.95
2022-09-16T05:10:42.314Z,11.94
2022-09-16T05:11:42.126Z,12.06
2022-09-16T05:12:44.687Z,12.02
2022-09-16T05:13:42.137Z,12.07
2022-09-16T05:14:42.117Z,12.09
2022-09-16T05:15:42.309Z,12.10
2022-09-16T05:16:42.237Z,12.03
2022-09-16T05:17:51.937Z,12.10
2022-09-16T05:18:42.075Z,12.09
2022-09-16T05:19:42.060Z,12.06
2022-09-16T05:20:42.245Z,12.12
2022-09-16T05:21:42.082Z,12.13
2022-09-16T05:22:42.084Z,12.10
2022-09-16T05:23:45.919Z,12.10
2022-09-16T05:24:42.163Z,12.10
2022-09-16T05:25:42.181Z,12.10
2022-09-16T05:26:42.119Z,12.13
2022-09-16T05:27:42.242Z,12.20
2022-09-16T05:28:42.027Z,12.15
2022-09-16T05:29:41.986Z,12.15
2022-09-16T05:30:42.189Z,12.21
2022-09-16T05:31:41.977Z,12.27
2022-09-16T05:32:41.978Z,12.25
2022-09-16T05:33:42.137Z,12.25
2022-09-16T05:34:41.985Z,12.25
2022-09-16T05:35:42.108Z,12.24
2022-09-16T05:36:42.200Z,12.25
2022-09-16T05:37:42.353Z,12.28
2022-09-16T05:38:54.344Z,12.25
2022-09-16T05:39:42.154Z,12.31
2022-09-16T05:40:41.993Z,12.25
2022-09-16T05:41:41.925Z,12.35
2022-09-16T05:42:41.879Z,12.28
2022-09-16T05:43:41.863Z,12.45
2022-09-16T05:44:41.858Z,12.49
2022-09-16T05:45:41.878Z,12.47
2022-09-16T05:46:41.860Z,12.47
2022-09-16T05:47:41.828Z,12.54
2022-09-16T05:48:41.821Z,12.70
2022-09-16T05:49:41.828Z,12.72
2022-09-16T05:50:41.809Z,12.97
2022-09-16T05:51:41.826Z,13.11
2022-09-16T05:52:41.800Z,13.31
2022-09-16T05:53:41.772Z,13.47
2022-09-16T05:54:41.800Z,13.53
2022-09-16T05:55:41.791Z,13.53
2022-09-16T05:56:41.896Z,13.46
2022-09-16T05:57:41.774Z,13.47
2022-09-16T05:58:41.752Z,13.50
2022-09-16T05:59:41.727Z,13.47
2022-09-16T06:00:41.746Z,13.52
2022-09-16T06:01:41.806Z,13.49
2022-09-16T06:02:41.777Z,13.42
2022-09-16T06:03:41.708Z,13.39
2022-09-16T06:04:41.710Z,13.41
2022-09-16T06:05:45.694Z,13.47
2022-09-16T06:06:41.695Z,13.57
2022-09-16T06:07:41.678Z,13.68
2022-09-16T06:08:41.660Z,13.59
2022-09-16T06:09:41.675Z,13.74
2022-09-16T06:10:41.660Z,13.63
2022-09-16T06:11:41.666Z,13.77
2022-09-16T06:12:41.756Z,13.71
2022-09-16T06:13:41.625Z,13.70
2022-09-16T06:14:41.638Z,13.60
2022-09-16T06:15:41.697Z,13.62
2022-09-16T06:16:41.610Z,13.60
2022-09-16T06:17:41.606Z,13.68
2022-09-16T06:18:41.582Z,13.77
2022-09-16T06:19:41.593Z,13.77
2022-09-16T06:20:41.591Z,13.71
2022-09-16T06:21:41.570Z,13.81
2022-09-16T06:22:41.587Z,13.87
2022-09-16T06:23:41.555Z,13.85
2022-09-16T06:24:41.551Z,13.83
2022-09-16T06:25:41.530Z,13.92
2022-09-16T06:26:41.525Z,14.00
2022-09-16T06:27:41.521Z,14.20
2022-09-16T06:28:41.673Z,14.33
2022-09-16T06:29:41.549Z,14.48
2022-09-16T06:30:41.579Z,14.62
2022-09-16T06:31:41.564Z,14.60
2022-09-16T06:32:41.518Z,14.53
2022-09-16T06:33:41.496Z,14.47
2022-09-16T06:34:41.478Z,14.53
2022-09-16T06:35:41.624Z,14.60
2022-09-16T06:36:44.754Z,14.59
2022-09-16T06:37:41.448Z,14.60
2022-09-16T06:38:41.445Z,14.45
2022-09-16T06:39:41.447Z,14.50
2022-09-16T06:40:41.592Z,14.45
2022-09-16T06:41:41.428Z,14.30
2022-09-16T06:42:41.421Z,14.26
2022-09-16T06:43:41.408Z,14.23
2022-09-16T06:44:41.537Z,14.29
2022-09-16T06:45:41.457Z,14.28
2022-09-16T06:46:41.385Z,14.40
2022-09-16T06:47:41.449Z,14.37
2022-09-16T06:48:41.396Z,14.43
2022-09-16T06:49:41.393Z,14.43
2022-09-16T06:50:41.355Z,14.50
2022-09-16T06:51:41.352Z,14.55
2022-09-16T06:52:41.406Z,14.53
2022-09-16T06:53:41.391Z,14.70
2022-09-16T06:54:41.347Z,14.84
2022-09-16T06:55:41.343Z,15.07
2022-09-16T06:56:41.375Z,15.06
2022-09-16T06:57:41.327Z,15.07
2022-09-16T06:58:41.310Z,15.04
2022-09-16T06:59:41.318Z,15.07
2022-09-16T07:00:41.482Z,14.91
2022-09-16T07:01:41.347Z,14.92
2022-09-16T07:02:41.331Z,14.85
2022-09-16T07:03:41.291Z,14.82
2022-09-16T07:04:41.272Z,14.73
2022-09-16T07:05:41.445Z,14.81
2022-09-16T07:07:11.036Z,14.72
2022-09-16T07:07:41.250Z,14.70
2022-09-16T07:08:41.240Z,14.72
2022-09-16T07:09:41.239Z,14.66
2022-09-16T07:10:41.422Z,14.58
2022-09-16T07:11:41.221Z,14.66
2022-09-16T07:12:41.223Z,14.60
2022-09-16T07:13:41.222Z,14.55
2022-09-16T07:14:41.222Z,14.58
2022-09-16T07:16:02.283Z,14.45
2022-09-16T07:16:41.380Z,14.45
2022-09-16T07:17:41.174Z,14.43
2022-09-16T07:18:41.175Z,14.44
2022-09-16T07:19:41.192Z,14.41
2022-09-16T07:20:41.325Z,14.43
2022-09-16T07:21:41.158Z,14.40
2022-09-16T07:22:41.164Z,14.40
2022-09-16T07:23:41.161Z,14.48
2022-09-16T07:24:41.125Z,14.43
2022-09-16T07:25:41.278Z,14.41
2022-09-16T07:26:41.139Z,14.32
2022-09-16T07:27:41.108Z,14.36
2022-09-16T07:28:41.129Z,14.26
2022-09-16T07:29:41.111Z,14.22
2022-09-16T07:30:41.410Z,14.15
2022-09-16T07:31:41.130Z,14.15
2022-09-16T07:32:41.211Z,14.12
2022-09-16T07:33:41.075Z,14.28
2022-09-16T07:34:41.084Z,14.29
2022-09-16T07:35:41.210Z,14.40
2022-09-16T07:36:41.058Z,14.44
2022-09-16T07:37:42.746Z,14.37
2022-09-16T07:38:41.055Z,14.44
2022-09-16T07:39:41.043Z,14.44
2022-09-16T07:40:41.193Z,14.44
2022-09-16T07:41:41.014Z,14.48
2022-09-16T07:42:41.009Z,14.45
2022-09-16T07:43:41.014Z,14.43
2022-09-16T07:44:40.994Z,14.43
2022-09-16T07:45:41.269Z,14.44
2022-09-16T07:46:40.970Z,14.47
2022-09-16T07:47:40.981Z,14.66
2022-09-16T07:48:41.097Z,14.68
2022-09-16T07:49:40.962Z,14.62
2022-09-16T07:50:41.101Z,14.63
2022-09-16T07:51:40.989Z,14.66
2022-09-16T07:52:41.004Z,14.62
2022-09-16T07:53:40.925Z,14.60
2022-09-16T07:54:40.946Z,14.44
2022-09-16T07:55:41.064Z,14.44
2022-09-16T07:56:40.915Z,14.45
2022-09-16T07:57:40.902Z,14.47
2022-09-16T07:58:40.890Z,14.59
2022-09-16T07:59:40.902Z,14.55
2022-09-16T08:00:41.061Z,14.47
2022-09-16T08:01:43.490Z,14.85
2022-09-16T08:02:40.973Z,14.73
2022-09-16T08:03:40.853Z,14.97
2022-09-16T08:04:40.984Z,15.04
2022-09-16T08:05:41.014Z,15.18
2022-09-16T08:06:40.853Z,15.10
2022-09-16T08:07:40.846Z,15.18
2022-09-16T08:08:41.008Z,15.18
2022-09-16T08:09:46.186Z,15.07
2022-09-16T08:10:40.968Z,14.97
2022-09-16T08:11:40.833Z,14.92
2022-09-16T08:12:40.807Z,14.84
2022-09-16T08:13:40.796Z,14.97
2022-09-16T08:14:40.801Z,14.94
2022-09-16T08:15:40.913Z,14.89
2022-09-16T08:16:40.843Z,15.02
2022-09-16T08:17:40.779Z,15.03
2022-09-16T08:18:40.761Z,15.79
2022-09-16T08:19:40.773Z,16.49
2022-09-16T08:20:41.016Z,17.14
2022-09-16T08:21:40.751Z,17.92
2022-09-16T08:22:40.735Z,18.10
2022-09-16T08:23:40.748Z,17.44
2022-09-16T08:24:40.734Z,18.37
2022-09-16T08:25:40.882Z,18.99
2022-09-16T08:26:40.712Z,18.58
2022-09-16T08:27:40.711Z,18.13
2022-09-16T08:28:57.513Z,18.77
2022-09-16T08:29:40.706Z,19.45
2022-09-16T08:30:40.858Z,19.77
2022-09-16T08:31:40.721Z,19.49
2022-09-16T08:32:40.676Z,19.31
2022-09-16T08:33:40.691Z,18.75
2022-09-16T08:34:40.685Z,19.45
2022-09-16T08:35:40.819Z,20.03
2022-09-16T08:36:40.794Z,19.27
2022-09-16T08:37:40.664Z,19.12
2022-09-16T08:38:40.662Z,18.63
2022-09-16T08:39:40.666Z,18.01
2022-09-16T08:40:40.815Z,17.51
2022-09-16T08:41:40.664Z,17.74
2022-09-16T08:42:40.641Z,17.94
2022-09-16T08:43:40.658Z,17.86
2022-09-16T08:44:40.623Z,18.19
2022-09-16T08:45:40.850Z,19.22
2022-09-16T08:46:41.029Z,18.75
2022-09-16T08:47:40.619Z,18.44
2022-09-16T08:48:40.611Z,17.98
2022-09-16T08:49:43.959Z,17.74
2022-09-16T08:50:40.791Z,17.78
2022-09-16T08:51:40.606Z,18.45
2022-09-16T08:52:40.711Z,18.44
2022-09-16T08:53:40.588Z,18.52
2022-09-16T08:54:40.600Z,18.38
2022-09-16T08:55:40.757Z,17.83
2022-09-16T08:56:44.198Z,17.70
2022-09-16T08:57:40.594Z,17.64
2022-09-16T08:58:40.560Z,17.46
2022-09-16T08:59:40.579Z,17.23
2022-09-16T09:00:40.736Z,17.15
2022-09-16T09:01:40.821Z,17.05
2022-09-16T09:03:40.537Z,16.87
2022-09-16T09:04:40.559Z,16.71
2022-09-16T09:05:40.692Z,16.50
2022-09-16T09:06:40.516Z,16.13
2022-09-16T09:07:40.511Z,16.16
2022-09-16T09:08:40.660Z,15.97
2022-09-16T09:09:40.526Z,15.92
2022-09-16T09:10:40.695Z,15.92
2022-09-16T09:11:40.566Z,16.01
2022-09-16T09:12:41.854Z,16.10
2022-09-16T09:13:40.492Z,15.97
2022-09-16T09:14:40.487Z,16.01
2022-09-16T09:15:40.634Z,15.91
2022-09-16T09:16:40.549Z,15.92
2022-09-16T09:17:48.037Z,16.09
2022-09-16T09:18:40.476Z,16.02
2022-09-16T09:19:40.484Z,16.15
2022-09-16T09:20:40.633Z,16.12
2022-09-16T09:21:40.460Z,16.01
2022-09-16T09:22:40.451Z,16.15
2022-09-16T09:23:40.452Z,16.10
2022-09-16T09:24:40.569Z,16.20
2022-09-16T09:25:40.624Z,16.13
2022-09-16T09:26:40.428Z,16.16
2022-09-16T09:27:40.428Z,16.21
2022-09-16T09:28:40.432Z,16.26
2022-09-16T09:29:40.413Z,16.28
2022-09-16T09:30:40.577Z,16.13
2022-09-16T09:31:40.456Z,16.09
2022-09-16T09:32:49.066Z,16.15
2022-09-16T09:33:46.479Z,16.20
2022-09-16T09:34:41.792Z,16.28
2022-09-16T09:35:40.538Z,16.16
2022-09-16T09:36:40.384Z,16.20
2022-09-16T09:37:40.375Z,16.16
2022-09-16T09:38:40.352Z,16.17
2022-09-16T09:39:40.357Z,16.29
2022-09-16T09:40:40.644Z,16.46
2022-09-16T09:41:40.338Z,16.71
2022-09-16T09:42:40.339Z,16.78
2022-09-16T09:44:40.337Z,17.11
2022-09-16T09:45:40.522Z,17.30
2022-09-16T09:46:40.323Z,17.42
2022-09-16T09:47:40.307Z,17.70
2022-09-16T09:48:40.297Z,17.71
2022-09-16T09:49:40.285Z,17.85
2022-09-16T09:50:40.422Z,18.25
2022-09-16T09:51:40.320Z,18.15
2022-09-16T09:52:40.284Z,18.00
2022-09-16T09:53:40.271Z,17.83
2022-09-16T09:54:40.269Z,17.74
2022-09-16T09:55:40.433Z,17.86
2022-09-16T09:56:40.402Z,17.83
2022-09-16T09:57:40.245Z,17.98
2022-09-16T09:58:40.439Z,17.83
2022-09-16T09:59:40.241Z,17.76
2022-09-16T10:00:40.453Z,17.70
2022-09-16T10:01:40.326Z,17.65
2022-09-16T10:02:40.218Z,17.57
2022-09-16T10:03:40.203Z,17.39
2022-09-16T10:04:40.203Z,17.15
2022-09-16T10:05:40.376Z,17.16
2022-09-16T10:06:40.177Z,17.05
2022-09-16T10:07:40.173Z,17.20
2022-09-16T10:08:40.651Z,17.41
2022-09-16T10:09:40.581Z,17.20
2022-09-16T10:10:40.480Z,17.15
2022-09-16T10:11:40.550Z,17.08
2022-09-16T10:12:40.654Z,17.06
2022-09-16T10:13:40.171Z,17.12
2022-09-16T10:14:40.146Z,17.27
2022-09-16T10:15:40.325Z,17.42
2022-09-16T10:16:40.234Z,17.46
2022-09-16T10:17:40.152Z,17.38
2022-09-16T10:18:40.147Z,16.97
2022-09-16T10:19:40.517Z,16.89
2022-09-16T10:20:40.291Z,16.87
2022-09-16T10:21:40.117Z,16.74
2022-09-16T10:22:40.138Z,16.75
2022-09-16T10:23:40.140Z,16.50
2022-09-16T10:24:40.083Z,16.41
2022-09-16T10:25:40.226Z,16.20
2022-09-16T10:26:40.538Z,16.12
2022-09-16T10:27:40.369Z,15.94
2022-09-16T10:28:40.205Z,15.72
2022-09-16T10:29:40.053Z,15.64
2022-09-16T10:30:40.188Z,15.59
2022-09-16T10:31:40.103Z,15.47
2022-09-16T10:32:40.043Z,15.59
2022-09-16T10:33:40.050Z,15.61
2022-09-16T10:34:40.056Z,15.70
2022-09-16T10:35:40.185Z,15.67
2022-09-16T10:36:40.028Z,15.82
2022-09-16T10:37:39.999Z,15.88
2022-09-16T10:38:40.005Z,15.92
2022-09-16T10:39:40.019Z,16.12
2022-09-16T10:40:40.153Z,16.33
2022-09-16T10:41:40.024Z,16.61
2022-09-16T10:42:39.985Z,16.75
2022-09-16T10:43:39.987Z,16.78
2022-09-16T10:44:40.125Z,16.99
2022-09-16T10:45:40.115Z,16.78
2022-09-16T10:46:39.993Z,16.96
2022-09-16T10:47:40.011Z,17.20
2022-09-16T10:48:39.989Z,17.42
2022-09-16T10:49:39.964Z,17.44
2022-09-16T10:50:40.081Z,17.38
2022-09-16T10:51:39.920Z,17.56
2022-09-16T10:52:39.930Z,17.67
2022-09-16T10:53:44.052Z,17.67
2022-09-16T10:54:39.924Z,17.78
2022-09-16T10:55:40.067Z,17.83
2022-09-16T10:56:39.937Z,18.01
2022-09-16T10:57:39.899Z,18.26
2022-09-16T10:58:39.894Z,18.38
2022-09-16T10:59:39.916Z,18.26
2022-09-16T11:00:44.914Z,17.86
2022-09-16T11:01:43.313Z,17.59
2022-09-16T11:02:39.880Z,17.39
2022-09-16T11:03:39.876Z,17.42
2022-09-16T11:04:39.884Z,17.26
2022-09-16T11:05:39.996Z,17.29
2022-09-16T11:06:39.845Z,17.27
2022-09-16T11:07:39.819Z,17.27
2022-09-16T11:08:39.852Z,16.97
2022-09-16T11:09:39.817Z,17.12
2022-09-16T11:10:39.996Z,17.22
2022-09-16T11:11:39.807Z,17.41
2022-09-16T11:12:39.852Z,17.59
2022-09-16T11:13:39.822Z,17.65
2022-09-16T11:14:39.835Z,17.76
2022-09-16T11:15:39.973Z,17.83
2022-09-16T11:16:40.000Z,17.98
2022-09-16T11:17:39.782Z,18.23
2022-09-16T11:18:39.786Z,18.41
2022-09-16T11:19:39.764Z,18.70
2022-09-16T11:20:39.928Z,18.75
2022-09-16T11:21:39.796Z,18.86
2022-09-16T11:22:39.769Z,19.14
2022-09-16T11:23:39.764Z,19.37
2022-09-16T11:24:39.729Z,19.36
2022-09-16T11:25:39.916Z,19.31
2022-09-16T11:26:39.742Z,19.22
2022-09-16T11:27:39.740Z,19.30
2022-09-16T11:28:39.753Z,19.22
2022-09-16T11:29:39.718Z,19.16
2022-09-16T11:30:39.875Z,19.04
2022-09-16T11:31:39.754Z,18.89
2022-09-16T11:32:40.255Z,18.89
2022-09-16T11:33:39.766Z,18.88
2022-09-16T11:34:39.999Z,18.90
2022-09-16T11:35:39.862Z,18.71
2022-09-16T11:36:39.680Z,18.70
2022-09-16T11:37:39.668Z,18.59
2022-09-16T11:38:43.807Z,18.33
2022-09-16T11:39:40.072Z,18.33
2022-09-16T11:40:40.128Z,18.26
2022-09-16T11:41:39.657Z,18.15
2022-09-16T11:42:39.676Z,18.13
2022-09-16T11:43:39.638Z,18.19
2022-09-16T11:44:39.658Z,18.19
2022-09-16T11:45:39.826Z,18.19
2022-09-16T11:46:39.647Z,18.25
2022-09-16T11:47:40.816Z,18.45
2022-09-16T11:48:39.749Z,18.63
2022-09-16T11:49:39.620Z,18.73
2022-09-16T11:50:39.764Z,18.75
2022-09-16T11:51:39.622Z,18.65
2022-09-16T11:52:39.630Z,18.74
2022-09-16T11:53:42.278Z,18.73
2022-09-16T11:54:39.588Z,18.74
2022-09-16T11:55:39.755Z,18.59
2022-09-16T11:56:39.569Z,18.50
2022-09-16T11:57:39.583Z,18.41
2022-09-16T11:58:39.557Z,18.28
2022-09-16T11:59:39.577Z,18.18
2022-09-16T12:00:39.738Z,18.10
2022-09-16T12:01:39.618Z,18.01
2022-09-16T12:02:39.630Z,18.04
2022-09-16T12:03:39.553Z,17.92
2022-09-16T12:04:39.701Z,17.86
2022-09-16T12:05:39.711Z,17.72
2022-09-16T12:06:39.569Z,17.79
2022-09-16T12:07:39.624Z,17.60
2022-09-16T12:08:39.536Z,17.52
2022-09-16T12:09:39.560Z,17.48
2022-09-16T12:10:39.683Z,17.39
2022-09-16T12:11:39.518Z,17.27
2022-09-16T12:12:39.515Z,17.09
2022-09-16T12:13:39.540Z,16.99
2022-09-16T12:14:39.748Z,16.86
2022-09-16T12:15:39.671Z,16.78
2022-09-16T12:16:39.549Z,16.71
2022-09-16T12:17:39.623Z,16.57
2022-09-16T12:18:39.459Z,16.54
2022-09-16T12:19:39.518Z,16.39
2022-09-16T12:20:39.771Z,16.20
2022-09-16T12:21:39.467Z,16.09
2022-09-16T12:22:39.438Z,15.97
2022-09-16T12:23:39.503Z,15.79
2022-09-16T12:24:39.432Z,15.62
2022-09-16T12:25:42.080Z,15.54
2022-09-16T12:26:39.427Z,15.37
2022-09-16T12:27:39.840Z,15.33
2022-09-16T12:28:39.561Z,15.25
2022-09-16T12:29:39.423Z,15.17
2022-09-16T12:30:39.522Z,15.17
2022-09-16T12:31:39.436Z,15.10
2022-09-16T12:32:39.594Z,15.35
2022-09-16T12:33:39.428Z,15.43
2022-09-16T12:34:39.507Z,15.67
2022-09-16T12:35:39.555Z,15.70
2022-09-16T12:36:39.547Z,15.88
2022-09-16T12:37:39.431Z,16.09
2022-09-16T12:38:39.423Z,16.28
2022-09-16T12:39:39.408Z,16.43
2022-09-16T12:40:39.551Z,16.57
2022-09-16T12:41:39.404Z,16.72
2022-09-16T12:42:42.069Z,16.83
2022-09-16T12:43:39.392Z,16.96
2022-09-16T12:44:39.336Z,17.02
2022-09-16T12:45:39.493Z,17.24
2022-09-16T12:46:39.381Z,17.26
2022-09-16T12:47:39.385Z,17.41
2022-09-16T12:48:39.304Z,17.42
2022-09-16T12:49:39.385Z,17.57
2022-09-16T12:50:39.466Z,17.59
2022-09-16T12:51:39.314Z,17.60
2022-09-16T12:52:39.616Z,17.54
2022-09-16T12:53:39.428Z,17.44
2022-09-16T12:54:51.140Z,17.41
2022-09-16T12:55:39.606Z,17.60